Airfield :
LOGIN :

Register | Disclaimer

   EN    FR    IT 

 










Legend :    VFR   Marginal VFR   IFR   Intensive IFR   Very Intensive IFR
Visi :
Ceiling :
>= 8 km
>= 3000ft
5 to 8 km
1000 to 3000 ft
1500m to 5 km
500 to 1000 ft
800 to 1500m
200 to 500 ft
< 800m
< 200 ft
Symbols :   Thunderstorms  Fog  Heavy snow  Heavy precipitations  Wind > 20 kt
SIGMETs :     Misc.  Thunderstorms  Icing  Turbulence  Mountain Waves  Volcanic Ashes






- Airport Elevation : 2026 ft
- IATA code : TOJ


LETO - Madrid Torrejon

EXPIRED METARs :
  • 280300Z VRB01KT 6000 SCT050 06/06 Q1021 NOSIG
  • 280230Z 09003KT 050V110 9999 FEW040 SCT055 07/06 Q1020 NOSIG
  • 280200Z 03005KT 9999 FEW060 07/06 Q1020 NOSIG
  • 272200Z 00000KT 9999 OVC060 08/06 Q1020 NOSIG

TAF TAF LETO
Valid from the 28 at 00:00 until the 29 at 00:00 UTC


272300Z 2800/2824 VRB05KT 9999 FEW040 TX11/2815Z TN04/2806Z
PROB40
TEMPO 2800/2802 3000 RA BKN014
PROB30
TEMPO 2800/2802 27010KT
PROB40
TEMPO 2810/2817 30010KT



MET'MAP, your aeronautical weather chart ! - Copyright ORBIFLY December 2007 - Disclaimer

ORBIFLY MET'MAP TEAM :

Programming & Development : Alexandra Zaïnal
Original concept : Baudouin d'Aumeries
Technical & hardware support : Manuel Goepfert
Assistance : Marc-Olivier Méhu




SOURCES & CREDITS :

   NOAA